Time,TemperatureF,DewpointF,PressureIn,WindDirection,WindDirectionDegrees,WindSpeedMPH,WindSpeedGustMPH,Humidity,HourlyPrecipIn,Conditions,Clouds,dailyrainin,SoftwareType,DateUTC
2013-09-21 00:01:00,81.8,55.1,29.94,South,180,1.0,1.0,40,0.00,,---,0.00,VWS V14.01,2013-09-21 07:01:00,
2013-09-21 00:06:00,81.4,55.5,29.94,SE,132,0.0,0.0,41,0.00,,---,0.00,VWS V14.01,2013-09-21 07:06:00,
2013-09-21 00:11:00,81.1,55.2,29.94,SE,146,4.0,5.0,41,0.00,,---,0.00,VWS V14.01,2013-09-21 07:11:00,
2013-09-21 00:16:00,80.9,55.7,29.94,SE,129,0.0,0.0,42,0.00,,---,0.00,VWS V14.01,2013-09-21 07:16:00,
2013-09-21 00:21:00,80.7,55.5,29.94,East,86,0.0,0.0,42,0.00,,---,0.00,VWS V14.01,2013-09-21 07:21:00,
2013-09-21 00:26:00,80.4,55.2,29.94,East,86,0.0,0.0,42,0.00,,---,0.00,VWS V14.01,2013-09-21 07:26:00,
2013-09-21 00:31:00,80.1,55.6,29.94,East,86,0.0,0.0,43,0.00,,---,0.00,VWS V14.01,2013-09-21 07:31:00,
2013-09-21 00:36:00,79.8,55.3,29.94,ESE,107,0.0,1.0,43,0.00,,---,0.00,VWS V14.01,2013-09-21 07:36:00,
2013-09-21 00:41:00,79.6,55.8,29.94,ESE,107,0.0,0.0,44,0.00,,---,0.00,VWS V14.01,2013-09-21 07:41:00,
2013-09-21 00:46:00,79.3,55.5,29.94,ESE,107,0.0,0.0,44,0.00,,---,0.00,VWS V14.01,2013-09-21 07:46:00,
2013-09-21 00:51:00,79.1,55.3,29.94,NE,40,0.0,2.0,44,0.00,,---,0.00,VWS V14.01,2013-09-21 07:51:00,
2013-09-21 00:56:00,79.2,56.0,29.94,NNE,32,0.0,0.0,45,0.00,,---,0.00,VWS V14.01,2013-09-21 07:56:00,
2013-09-21 01:01:00,79.1,55.3,29.94,NNE,32,0.0,0.0,44,0.00,,---,0.00,VWS V14.01,2013-09-21 08:01:00,
2013-09-21 01:06:00,78.8,55.7,29.94,NNE,32,0.0,0.0,45,0.00,,---,0.00,VWS V14.01,2013-09-21 08:06:00,
2013-09-21 01:11:00,78.4,55.3,29.94,NNE,32,0.0,0.0,45,0.00,,---,0.00,VWS V14.01,2013-09-21 08:11:00,
2013-09-21 01:16:00,78.0,55.6,29.94,NNE,32,0.0,0.0,46,0.00,,---,0.00,VWS V14.01,2013-09-21 08:16:00,
2013-09-21 01:21:00,77.7,55.9,29.94,NNE,32,0.0,0.0,47,0.00,,---,0.00,VWS V14.01,2013-09-21 08:21:00,
2013-09-21 01:26:00,77.4,55.6,29.93,NNE,32,0.0,0.0,47,0.00,,---,0.00,VWS V14.01,2013-09-21 08:26:00,
2013-09-21 01:31:00,77.0,55.8,29.93,NNE,32,0.0,0.0,48,0.00,,---,0.00,VWS V14.01,2013-09-21 08:31:00,
2013-09-21 01:36:00,76.6,56.0,29.93,NNE,32,0.0,0.0,49,0.00,,---,0.00,VWS V14.01,2013-09-21 08:36:00,
2013-09-21 01:41:00,76.2,56.2,29.93,NNE,32,0.0,0.0,50,0.00,,---,0.00,VWS V14.01,2013-09-21 08:41:00,
2013-09-21 01:46:00,75.8,56.4,29.93,NNE,32,0.0,0.0,51,0.00,,---,0.00,VWS V14.01,2013-09-21 08:46:00,
2013-09-21 01:51:00,75.3,55.9,29.93,NNE,32,0.0,0.0,51,0.00,,---,0.00,VWS V14.01,2013-09-21 08:51:00,
2013-09-21 01:56:00,75.0,56.7,29.93,NNE,32,0.0,0.0,53,0.00,,---,0.00,VWS V14.01,2013-09-21 08:56:00,
2013-09-21 02:01:00,74.7,57.0,29.93,NNE,32,0.0,0.0,54,0.00,,---,0.00,VWS V14.01,2013-09-21 09:01:00,
2013-09-21 02:06:00,74.3,56.1,29.92,NNE,32,0.0,0.0,53,0.00,,---,0.00,VWS V14.01,2013-09-21 09:06:00,
2013-09-21 02:11:00,73.9,56.2,29.93,NNE,32,0.0,0.0,54,0.00,,---,0.00,VWS V14.01,2013-09-21 09:11:00,
2013-09-21 02:16:00,73.7,57.0,29.92,NNE,32,0.0,0.0,56,0.00,,---,0.00,VWS V14.01,2013-09-21 09:16:00,
2013-09-21 02:21:00,73.5,56.9,29.92,NNE,32,0.0,0.0,56,0.00,,---,0.00,VWS V14.01,2013-09-21 09:21:00,
2013-09-21 02:26:00,73.1,56.0,29.92,NNE,32,0.0,0.0,55,0.00,,---,0.00,VWS V14.01,2013-09-21 09:26:00,
2013-09-21 02:31:00,72.9,56.3,29.92,NNE,32,0.0,0.0,56,0.00,,---,0.00,VWS V14.01,2013-09-21 09:31:00,
2013-09-21 02:36:00,72.8,55.7,29.92,NNE,32,0.0,0.0,55,0.00,,---,0.00,VWS V14.01,2013-09-21 09:36:00,
2013-09-21 02:41:00,72.8,56.2,29.92,NNE,32,0.0,0.0,56,0.00,,---,0.00,VWS V14.01,2013-09-21 09:41:00,
2013-09-21 02:46:00,72.8,57.2,29.92,NNE,32,0.0,0.0,58,0.00,,---,0.00,VWS V14.01,2013-09-21 09:46:00,
2013-09-21 02:51:00,72.6,56.0,29.92,NNE,32,0.0,0.0,56,0.00,,---,0.00,VWS V14.01,2013-09-21 09:51:00,
2013-09-21 02:56:00,72.6,56.5,29.92,NNE,32,0.0,0.0,57,0.00,,---,0.00,VWS V14.01,2013-09-21 09:56:00,
2013-09-21 03:01:00,72.4,56.3,29.92,NNE,32,0.0,0.0,57,0.00,,---,0.00,VWS V14.01,2013-09-21 10:01:00,
2013-09-21 03:06:00,72.3,56.7,29.92,NNE,32,0.0,0.0,58,0.00,,---,0.00,VWS V14.01,2013-09-21 10:06:00,
2013-09-21 03:11:00,72.1,56.0,29.92,NNE,32,0.0,0.0,57,0.00,,---,0.00,VWS V14.01,2013-09-21 10:11:00,
2013-09-21 03:16:00,72.2,56.6,29.92,NNE,32,0.0,0.0,58,0.00,,---,0.00,VWS V14.01,2013-09-21 10:16:00,
2013-09-21 03:21:00,72.1,57.0,29.92,NNE,32,0.0,0.0,59,0.00,,---,0.00,VWS V14.01,2013-09-21 10:21:00,
2013-09-21 03:26:00,71.9,56.3,29.92,SW,231,0.0,0.0,58,0.00,,---,0.00,VWS V14.01,2013-09-21 10:26:00,
2013-09-21 03:31:00,71.8,56.2,29.92,SW,231,0.0,0.0,58,0.00,,---,0.00,VWS V14.01,2013-09-21 10:31:00,
2013-09-21 03:36:00,71.7,56.2,29.93,WNW,300,0.0,0.0,58,0.00,,---,0.00,VWS V14.01,2013-09-21 10:36:00,
2013-09-21 03:41:00,71.6,56.1,29.93,WNW,299,0.0,0.0,58,0.00,,---,0.00,VWS V14.01,2013-09-21 10:41:00,
2013-09-21 03:46:00,71.5,56.9,29.93,WNW,299,0.0,0.0,60,0.00,,---,0.00,VWS V14.01,2013-09-21 10:46:00,
2013-09-21 03:51:00,71.3,56.2,29.93,WNW,299,0.0,0.0,59,0.00,,---,0.00,VWS V14.01,2013-09-21 10:51:00,
2013-09-21 03:56:00,71.2,56.2,29.93,WNW,299,0.0,0.0,59,0.00,,---,0.00,VWS V14.01,2013-09-21 10:56:00,
2013-09-21 04:01:00,71.2,56.2,29.93,WNW,299,0.0,0.0,59,0.00,,---,0.00,VWS V14.01,2013-09-21 11:01:00,
2013-09-21 04:06:00,71.1,56.1,29.93,WNW,299,0.0,0.0,59,0.00,,---,0.00,VWS V14.01,2013-09-21 11:06:00,
2013-09-21 04:11:00,71.2,56.2,29.93,WNW,299,0.0,0.0,59,0.00,,---,0.00,VWS V14.01,2013-09-21 11:11:00,
2013-09-21 04:16:00,71.1,56.5,29.93,WNW,299,0.0,0.0,60,0.00,,---,0.00,VWS V14.01,2013-09-21 11:16:00,
2013-09-21 04:21:00,71.0,56.4,29.93,WNW,299,0.0,0.0,60,0.00,,---,0.00,VWS V14.01,2013-09-21 11:21:00,
2013-09-21 04:26:00,70.8,56.7,29.93,WNW,299,0.0,0.0,61,0.00,,---,0.00,VWS V14.01,2013-09-21 11:26:00,
2013-09-21 04:31:00,70.4,56.3,29.93,WNW,299,0.0,0.0,61,0.00,,---,0.00,VWS V14.01,2013-09-21 11:31:00,
2013-09-21 04:35:00,70.2,56.6,29.93,WNW,299,0.0,0.0,62,0.00,,---,0.00,VWS V14.01,2013-09-21 11:35:00,
2013-09-21 04:40:00,69.9,56.3,29.93,NNE,25,0.0,0.0,62,0.00,,---,0.00,VWS V14.01,2013-09-21 11:40:00,
2013-09-21 04:45:00,69.9,56.8,29.93,NE,51,0.0,0.0,63,0.00,,---,0.00,VWS V14.01,2013-09-21 11:45:00,
2013-09-21 04:50:00,70.0,56.0,29.93,NE,51,0.0,0.0,61,0.00,,---,0.00,VWS V14.01,2013-09-21 11:50:00,
2013-09-21 04:55:00,70.3,56.2,29.93,NE,51,0.0,0.0,61,0.00,,---,0.00,VWS V14.01,2013-09-21 11:55:00,
2013-09-21 05:00:00,70.7,56.2,29.93,NE,36,0.0,0.0,60,0.00,,---,0.00,VWS V14.01,2013-09-21 12:00:00,
2013-09-21 05:05:00,71.5,56.0,29.93,ENE,57,0.0,0.0,58,0.00,,---,0.00,VWS V14.01,2013-09-21 12:05:00,
2013-09-21 05:10:00,71.8,56.2,29.93,ENE,61,0.0,0.0,58,0.00,,---,0.00,VWS V14.01,2013-09-21 12:10:00,
2013-09-21 05:15:00,71.6,56.5,29.93,ENE,61,0.0,0.0,59,0.00,,---,0.00,VWS V14.01,2013-09-21 12:15:00,
2013-09-21 05:20:00,71.3,56.2,29.93,ENE,61,0.0,0.0,59,0.00,,---,0.00,VWS V14.01,2013-09-21 12:20:00,
2013-09-21 05:25:00,70.8,56.2,29.93,South,169,0.0,0.0,60,0.00,,---,0.00,VWS V14.01,2013-09-21 12:25:00,
2013-09-21 05:30:00,70.5,56.4,29.93,South,169,0.0,0.0,61,0.00,,---,0.00,VWS V14.01,2013-09-21 12:30:00,
2013-09-21 05:35:00,70.1,56.0,29.94,South,169,0.0,0.0,61,0.00,,---,0.00,VWS V14.01,2013-09-21 12:35:00,
2013-09-21 05:40:00,69.9,56.8,29.93,South,169,0.0,0.0,63,0.00,,---,0.00,VWS V14.01,2013-09-21 12:40:00,
2013-09-21 05:45:00,69.8,56.7,29.93,East,80,0.0,1.0,63,0.00,,---,0.00,VWS V14.01,2013-09-21 12:45:00,
2013-09-21 05:50:00,70.6,57.0,29.93,East,89,2.0,3.0,62,0.00,,---,0.00,VWS V14.01,2013-09-21 12:50:00,
2013-09-21 05:55:00,71.8,57.2,29.94,East,101,0.0,2.0,60,0.00,,---,0.00,VWS V14.01,2013-09-21 12:55:00,
2013-09-21 06:01:00,72.4,56.8,29.94,East,100,0.0,0.0,58,0.00,,---,0.00,VWS V14.01,2013-09-21 13:01:00,
2013-09-21 06:06:00,72.5,56.9,29.94,East,100,0.0,0.0,58,0.00,,---,0.00,VWS V14.01,2013-09-21 13:06:00,
2013-09-21 06:11:00,72.4,56.8,29.94,East,100,0.0,0.0,58,0.00,,---,0.00,VWS V14.01,2013-09-21 13:11:00,
2013-09-21 06:16:00,72.1,57.0,29.94,East,100,0.0,0.0,59,0.00,,---,0.00,VWS V14.01,2013-09-21 13:16:00,
2013-09-21 06:21:00,71.7,56.6,29.94,East,100,0.0,0.0,59,0.00,,---,0.00,VWS V14.01,2013-09-21 13:21:00,
2013-09-21 06:26:00,71.3,56.7,29.94,East,100,0.0,0.0,60,0.00,,---,0.00,VWS V14.01,2013-09-21 13:26:00,
2013-09-21 06:31:00,71.0,56.9,29.94,East,100,0.0,0.0,61,0.00,,---,0.00,VWS V14.01,2013-09-21 13:31:00,
2013-09-21 06:36:00,70.8,56.7,29.94,East,100,0.0,0.0,61,0.00,,---,0.00,VWS V14.01,2013-09-21 13:36:00,
2013-09-21 06:41:00,70.7,57.5,29.94,East,100,0.0,0.0,63,0.00,,---,0.00,VWS V14.01,2013-09-21 13:41:00,
2013-09-21 06:46:00,70.8,57.6,29.94,East,100,0.0,0.0,63,0.00,,---,0.00,VWS V14.01,2013-09-21 13:46:00,
2013-09-21 06:51:00,70.9,57.2,29.94,East,100,0.0,0.0,62,0.00,,---,0.00,VWS V14.01,2013-09-21 13:51:00,
2013-09-21 06:56:00,71.2,57.5,29.95,East,100,0.0,0.0,62,0.00,,---,0.00,VWS V14.01,2013-09-21 13:56:00,
2013-09-21 07:01:00,71.6,58.3,29.95,East,100,0.0,0.0,63,0.00,,---,0.00,VWS V14.01,2013-09-21 14:01:00,
2013-09-21 07:06:00,72.0,58.3,29.95,East,100,0.0,0.0,62,0.00,,---,0.00,VWS V14.01,2013-09-21 14:06:00,
2013-09-21 07:11:00,73.0,58.3,29.95,East,100,0.0,0.0,60,0.00,,---,0.00,VWS V14.01,2013-09-21 14:11:00,
2013-09-21 07:16:00,74.6,59.3,29.95,East,100,0.0,0.0,59,0.00,,---,0.00,VWS V14.01,2013-09-21 14:16:00,
2013-09-21 07:21:00,75.6,59.3,29.95,East,100,0.0,0.0,57,0.00,,---,0.00,VWS V14.01,2013-09-21 14:21:00,
2013-09-21 07:26:00,76.2,59.9,29.95,East,100,0.0,0.0,57,0.00,,---,0.00,VWS V14.01,2013-09-21 14:26:00,
2013-09-21 07:31:00,76.3,60.5,29.95,East,100,0.0,0.0,58,0.00,,---,0.00,VWS V14.01,2013-09-21 14:31:00,
2013-09-21 07:36:00,77.0,59.6,29.95,East,100,0.0,0.0,55,0.00,,---,0.00,VWS V14.01,2013-09-21 14:36:00,
2013-09-21 07:41:00,77.3,59.9,29.95,East,100,0.0,0.0,55,0.00,,---,0.00,VWS V14.01,2013-09-21 14:41:00,
2013-09-21 07:46:00,78.0,59.5,29.95,East,100,0.0,0.0,53,0.00,,---,0.00,VWS V14.01,2013-09-21 14:46:00,
2013-09-21 07:51:00,78.3,59.2,29.95,East,100,0.0,0.0,52,0.00,,---,0.00,VWS V14.01,2013-09-21 14:51:00,
2013-09-21 07:56:00,78.6,58.4,29.95,East,100,0.0,0.0,50,0.00,,---,0.00,VWS V14.01,2013-09-21 14:56:00,
2013-09-21 08:01:00,79.5,58.7,29.95,East,100,0.0,0.0,49,0.00,,---,0.00,VWS V14.01,2013-09-21 15:01:00,
2013-09-21 08:06:00,80.5,59.0,29.95,East,100,0.0,0.0,48,0.00,,---,0.00,VWS V14.01,2013-09-21 15:06:00,
2013-09-21 08:11:00,80.7,58.0,29.95,East,100,0.0,0.0,46,0.00,,---,0.00,VWS V14.01,2013-09-21 15:11:00,
2013-09-21 08:16:00,80.8,59.3,29.95,East,100,0.0,1.0,48,0.00,,---,0.00,VWS V14.01,2013-09-21 15:16:00,
2013-09-21 08:21:00,80.9,59.4,29.95,East,100,0.0,0.0,48,0.00,,---,0.00,VWS V14.01,2013-09-21 15:21:00,
2013-09-21 08:26:00,81.0,58.9,29.95,East,100,0.0,1.0,47,0.00,,---,0.00,VWS V14.01,2013-09-21 15:26:00,
2013-09-21 08:31:00,81.0,59.5,29.95,East,100,0.0,0.0,48,0.00,,---,0.00,VWS V14.01,2013-09-21 15:31:00,
2013-09-21 08:36:00,81.4,59.3,29.95,East,100,0.0,1.0,47,0.00,,---,0.00,VWS V14.01,2013-09-21 15:36:00,
2013-09-21 08:41:00,82.0,58.6,29.95,East,100,0.0,1.0,45,0.00,,---,0.00,VWS V14.01,2013-09-21 15:41:00,
2013-09-21 08:47:00,82.4,58.3,29.95,NW,325,0.0,0.0,44,0.00,,---,0.00,VWS V14.01,2013-09-21 15:47:00,
2013-09-21 08:51:00,83.2,59.0,29.95,NW,326,0.0,1.0,44,0.00,,---,0.00,VWS V14.01,2013-09-21 15:51:00,
2013-09-21 08:57:00,83.5,58.7,29.95,NW,326,0.0,0.0,43,0.00,,---,0.00,VWS V14.01,2013-09-21 15:57:00,
2013-09-21 09:02:00,83.8,58.3,29.95,West,265,0.0,0.0,42,0.00,,---,0.00,VWS V14.01,2013-09-21 16:02:00,
2013-09-21 09:07:00,84.1,59.2,29.95,West,265,0.0,0.0,43,0.00,,---,0.00,VWS V14.01,2013-09-21 16:07:00,
2013-09-21 09:12:00,84.7,58.4,29.95,South,186,0.0,1.0,41,0.00,,---,0.00,VWS V14.01,2013-09-21 16:12:00,
2013-09-21 09:17:00,83.7,59.5,29.95,SSW,192,0.0,3.0,44,0.00,,---,0.00,VWS V14.01,2013-09-21 16:17:00,
2013-09-21 09:22:00,83.9,59.7,29.95,WSW,251,0.0,3.0,44,0.00,,---,0.00,VWS V14.01,2013-09-21 16:22:00,
2013-09-21 09:27:00,85.1,60.1,29.95,SW,215,0.0,1.0,43,0.00,,---,0.00,VWS V14.01,2013-09-21 16:27:00,
2013-09-21 09:32:00,84.8,59.2,29.94,SW,217,0.0,1.0,42,0.00,,---,0.00,VWS V14.01,2013-09-21 16:32:00,
2013-09-21 09:37:00,86.1,59.7,29.94,SSE,166,0.0,1.0,41,0.00,,---,0.00,VWS V14.01,2013-09-21 16:37:00,
2013-09-21 09:42:00,85.8,59.4,29.94,WSW,239,0.0,1.0,41,0.00,,---,0.00,VWS V14.01,2013-09-21 16:42:00,
2013-09-21 09:47:00,86.5,58.6,29.94,WSW,239,0.0,0.0,39,0.00,,---,0.00,VWS V14.01,2013-09-21 16:47:00,
2013-09-21 09:52:00,87.7,60.4,29.94,WSW,239,0.0,1.0,40,0.00,,---,0.00,VWS V14.01,2013-09-21 16:52:00,
2013-09-21 09:57:00,87.9,59.2,29.94,WSW,239,0.0,1.0,38,0.00,,---,0.00,VWS V14.01,2013-09-21 16:57:00,
2013-09-21 10:03:00,87.7,59.0,29.94,WSW,239,0.0,1.0,38,0.00,,---,0.00,VWS V14.01,2013-09-21 17:03:00,
2013-09-21 10:08:00,88.3,59.5,29.94,WSW,239,0.0,1.0,38,0.00,,---,0.00,VWS V14.01,2013-09-21 17:08:00,
2013-09-21 10:13:00,88.1,59.3,29.93,WNW,300,0.0,1.0,38,0.00,,---,0.00,VWS V14.01,2013-09-21 17:13:00,
2013-09-21 10:18:00,87.9,58.4,29.93,NNW,330,0.0,4.0,37,0.00,,---,0.00,VWS V14.01,2013-09-21 17:18:00,
2013-09-21 10:23:00,88.3,59.5,29.93,SSE,155,0.0,1.0,38,0.00,,---,0.00,VWS V14.01,2013-09-21 17:23:00,
2013-09-21 10:28:00,89.1,58.7,29.93,ESE,117,0.0,3.0,36,0.00,,---,0.00,VWS V14.01,2013-09-21 17:28:00,
2013-09-21 10:33:00,89.6,59.1,29.93,SSW,192,0.0,1.0,36,0.00,,---,0.00,VWS V14.01,2013-09-21 17:33:00,
2013-09-21 10:38:00,90.3,58.2,29.93,SSW,194,0.0,4.0,34,0.00,,---,0.00,VWS V14.01,2013-09-21 17:38:00,
2013-09-21 10:43:00,89.6,57.5,29.92,SE,139,0.0,1.0,34,0.00,,---,0.00,VWS V14.01,2013-09-21 17:43:00,
2013-09-21 10:48:00,89.6,58.3,29.92,ESE,119,0.0,1.0,35,0.00,,---,0.00,VWS V14.01,2013-09-21 17:48:00,
2013-09-21 10:53:00,90.2,58.9,29.92,ESE,119,0.0,0.0,35,0.00,,---,0.00,VWS V14.01,2013-09-21 17:53:00,
2013-09-21 10:58:00,90.0,58.7,29.92,NE,37,0.0,4.0,35,0.00,,---,0.00,VWS V14.01,2013-09-21 17:58:00,
2013-09-21 11:03:00,90.1,58.0,29.92,WNW,295,0.0,4.0,34,0.00,,---,0.00,VWS V14.01,2013-09-21 18:03:00,
2013-09-21 11:08:00,91.3,59.0,29.92,WSW,238,0.0,1.0,34,0.00,,---,0.00,VWS V14.01,2013-09-21 18:08:00,
2013-09-21 11:13:00,91.8,58.6,29.91,WSW,252,1.0,6.0,33,0.00,,---,0.00,VWS V14.01,2013-09-21 18:13:00,
2013-09-21 11:18:00,91.5,58.4,29.91,West,262,0.0,5.0,33,0.00,,---,0.00,VWS V14.01,2013-09-21 18:18:00,
2013-09-21 11:23:00,91.2,57.2,29.91,SSW,192,0.0,0.0,32,0.00,,---,0.00,VWS V14.01,2013-09-21 18:23:00,
2013-09-21 11:28:00,90.9,58.7,29.91,SSW,203,0.0,6.0,34,0.00,,---,0.00,VWS V14.01,2013-09-21 18:28:00,
2013-09-21 11:33:00,91.6,57.6,29.91,ENE,74,0.0,1.0,32,0.00,,---,0.00,VWS V14.01,2013-09-21 18:33:00,
2013-09-21 11:38:00,91.0,57.1,29.91,WNW,296,0.0,3.0,32,0.00,,---,0.00,VWS V14.01,2013-09-21 18:38:00,
2013-09-21 11:43:00,92.0,58.8,29.90,WNW,288,0.0,5.0,33,0.00,,---,0.00,VWS V14.01,2013-09-21 18:43:00,
2013-09-21 11:48:00,92.0,57.1,29.90,NNE,19,1.0,6.0,31,0.00,,---,0.00,VWS V14.01,2013-09-21 18:48:00,
2013-09-21 11:53:00,93.3,59.9,29.90,NNW,336,1.0,3.0,33,0.00,,---,0.00,VWS V14.01,2013-09-21 18:53:00,
2013-09-21 11:58:00,93.3,58.2,29.90,WSW,253,3.0,4.0,31,0.00,,---,0.00,VWS V14.01,2013-09-21 18:58:00,
2013-09-21 12:03:00,93.2,56.2,29.89,WSW,239,0.0,5.0,29,0.00,,---,0.00,VWS V14.01,2013-09-21 19:03:00,
2013-09-21 12:08:00,93.6,56.6,29.89,SSW,192,3.0,6.0,29,0.00,,---,0.00,VWS V14.01,2013-09-21 19:08:00,
2013-09-21 12:13:00,93.0,56.1,29.89,SSE,159,0.0,6.0,29,0.00,,---,0.00,VWS V14.01,2013-09-21 19:13:00,
2013-09-21 12:18:00,92.6,55.7,29.89,NNE,30,6.0,8.0,29,0.00,,---,0.00,VWS V14.01,2013-09-21 19:18:00,
2013-09-21 12:23:00,93.6,56.6,29.89,SSE,148,8.0,16.0,29,0.00,,---,0.00,VWS V14.01,2013-09-21 19:23:00,
2013-09-21 12:28:00,94.1,56.0,29.88,WSW,240,8.0,11.0,28,0.00,,---,0.00,VWS V14.01,2013-09-21 19:28:00,
2013-09-21 12:33:00,94.2,55.1,29.88,WSW,256,0.0,7.0,27,0.00,,---,0.00,VWS V14.01,2013-09-21 19:33:00,
2013-09-21 12:38:00,93.8,53.8,29.88,WNW,301,0.0,5.0,26,0.00,,---,0.00,VWS V14.01,2013-09-21 19:38:00,
2013-09-21 12:43:00,93.1,53.2,29.88,WSW,244,0.0,6.0,26,0.00,,---,0.00,VWS V14.01,2013-09-21 19:43:00,
2013-09-21 12:48:00,93.5,53.5,29.87,WSW,246,0.0,4.0,26,0.00,,---,0.00,VWS V14.01,2013-09-21 19:48:00,
2013-09-21 12:53:00,94.5,53.3,29.87,NW,312,2.0,7.0,25,0.00,,---,0.00,VWS V14.01,2013-09-21 19:53:00,
2013-09-21 12:58:00,94.5,54.3,29.86,SW,232,4.0,5.0,26,0.00,,---,0.00,VWS V14.01,2013-09-21 19:58:00,
2013-09-21 13:03:00,95.4,52.9,29.86,SW,224,0.0,10.0,24,0.00,,---,0.00,VWS V14.01,2013-09-21 20:03:00,
2013-09-21 13:08:00,94.6,51.1,29.86,SSW,202,0.0,9.0,23,0.00,,---,0.00,VWS V14.01,2013-09-21 20:08:00,
2013-09-21 13:13:00,94.4,52.1,29.85,SE,138,0.0,5.0,24,0.00,,---,0.00,VWS V14.01,2013-09-21 20:13:00,
2013-09-21 13:18:00,94.7,52.3,29.85,SW,223,0.0,6.0,24,0.00,,---,0.00,VWS V14.01,2013-09-21 20:18:00,
2013-09-21 13:23:00,95.1,53.8,29.85,ESE,119,0.0,6.0,25,0.00,,---,0.00,VWS V14.01,2013-09-21 20:23:00,
2013-09-21 13:28:00,95.1,51.5,29.84,SW,223,0.0,4.0,23,0.00,,---,0.00,VWS V14.01,2013-09-21 20:28:00,
2013-09-21 13:33:00,95.6,54.2,29.84,NE,34,0.0,7.0,25,0.00,,---,0.00,VWS V14.01,2013-09-21 20:33:00,
2013-09-21 13:38:00,96.0,52.3,29.84,SW,228,2.0,5.0,23,0.00,,---,0.00,VWS V14.01,2013-09-21 20:38:00,
2013-09-21 13:43:00,95.4,50.6,29.84,East,79,4.0,9.0,22,0.00,,---,0.00,VWS V14.01,2013-09-21 20:43:00,
2013-09-21 13:48:00,95.5,50.7,29.83,East,88,0.0,7.0,22,0.00,,---,0.00,VWS V14.01,2013-09-21 20:48:00,
2013-09-21 13:53:00,96.0,51.1,29.83,WNW,302,0.0,2.0,22,0.00,,---,0.00,VWS V14.01,2013-09-21 20:53:00,
2013-09-21 13:58:00,95.8,49.6,29.83,SW,215,0.0,5.0,21,0.00,,---,0.00,VWS V14.01,2013-09-21 20:58:00,
2013-09-21 14:03:00,95.5,50.7,29.83,WSW,242,3.0,3.0,22,0.00,,---,0.00,VWS V14.01,2013-09-21 21:03:00,
2013-09-21 14:08:00,95.5,50.7,29.83,WSW,257,0.0,2.0,22,0.00,,---,0.00,VWS V14.01,2013-09-21 21:08:00,
2013-09-21 14:13:00,95.4,50.6,29.82,SSW,194,3.0,13.0,22,0.00,,---,0.00,VWS V14.01,2013-09-21 21:13:00,
2013-09-21 14:18:00,96.3,51.3,29.83,South,170,0.0,7.0,22,0.00,,---,0.00,VWS V14.01,2013-09-21 21:18:00,
2013-09-21 14:23:00,95.4,51.8,29.82,WSW,248,5.0,10.0,23,0.00,,---,0.00,VWS V14.01,2013-09-21 21:23:00,
2013-09-21 14:28:00,96.0,51.1,29.82,SSW,192,4.0,9.0,22,0.00,,---,0.00,VWS V14.01,2013-09-21 21:28:00,
2013-09-21 14:33:00,96.2,52.4,29.82,NE,54,1.0,3.0,23,0.00,,---,0.00,VWS V14.01,2013-09-21 21:33:00,
2013-09-21 14:38:00,96.9,51.8,29.82,SSW,204,3.0,10.0,22,0.00,,---,0.00,VWS V14.01,2013-09-21 21:38:00,
2013-09-21 14:43:00,96.5,52.7,29.81,SE,128,0.0,7.0,23,0.00,,---,0.00,VWS V14.01,2013-09-21 21:43:00,
2013-09-21 14:48:00,97.1,52.0,29.81,South,179,3.0,7.0,22,0.00,,---,0.00,VWS V14.01,2013-09-21 21:48:00,
2013-09-21 14:53:00,96.9,51.8,29.81,South,170,1.0,7.0,22,0.00,,---,0.00,VWS V14.01,2013-09-21 21:53:00,
2013-09-21 14:58:00,96.1,51.1,29.81,SW,224,2.0,4.0,22,0.00,,---,0.00,VWS V14.01,2013-09-21 21:58:00,
2013-09-21 15:03:00,95.8,52.1,29.81,WSW,241,0.0,9.0,23,0.00,,---,0.00,VWS V14.01,2013-09-21 22:03:00,
2013-09-21 15:08:00,95.8,52.1,29.80,SSW,200,7.0,9.0,23,0.00,,---,0.00,VWS V14.01,2013-09-21 22:08:00,
2013-09-21 15:13:00,95.8,52.1,29.80,SW,222,0.0,6.0,23,0.00,,---,0.00,VWS V14.01,2013-09-21 22:13:00,
2013-09-21 15:18:00,96.3,52.5,29.80,SW,222,0.0,1.0,23,0.00,,---,0.00,VWS V14.01,2013-09-21 22:18:00,
2013-09-21 15:23:00,97.3,52.1,29.80,ESE,117,7.0,10.0,22,0.00,,---,0.00,VWS V14.01,2013-09-21 22:23:00,
2013-09-21 15:28:00,96.1,52.3,29.80,SE,132,1.0,7.0,23,0.00,,---,0.00,VWS V14.01,2013-09-21 22:28:00,
2013-09-21 15:33:00,96.2,51.2,29.80,East,97,4.0,10.0,22,0.00,,---,0.00,VWS V14.01,2013-09-21 22:33:00,
2013-09-21 15:38:00,95.7,52.0,29.79,East,95,2.0,8.0,23,0.00,,---,0.00,VWS V14.01,2013-09-21 22:38:00,
2013-09-21 15:43:00,96.9,51.8,29.79,NNW,329,0.0,1.0,22,0.00,,---,0.00,VWS V14.01,2013-09-21 22:43:00,
2013-09-21 15:48:00,96.2,51.2,29.79,East,86,0.0,8.0,22,0.00,,---,0.00,VWS V14.01,2013-09-21 22:48:00,
2013-09-21 15:53:00,95.6,51.9,29.78,ESE,117,6.0,7.0,23,0.00,,---,0.00,VWS V14.01,2013-09-21 22:53:00,
2013-09-21 15:58:00,95.3,51.7,29.78,SSE,160,0.0,9.0,23,0.00,,---,0.00,VWS V14.01,2013-09-21 22:58:00,
2013-09-21 16:03:00,95.0,51.4,29.78,ESE,109,0.0,4.0,23,0.00,,---,0.00,VWS V14.01,2013-09-21 23:03:00,
2013-09-21 16:08:00,95.2,50.4,29.78,SSE,167,0.0,4.0,22,0.00,,---,0.00,VWS V14.01,2013-09-21 23:08:00,
2013-09-21 16:13:00,95.2,51.6,29.77,SSE,167,0.0,1.0,23,0.00,,---,0.00,VWS V14.01,2013-09-21 23:13:00,
2013-09-21 16:18:00,95.1,51.5,29.77,SSW,199,0.0,3.0,23,0.00,,---,0.00,VWS V14.01,2013-09-21 23:18:00,
2013-09-21 16:23:00,95.4,51.8,29.77,SSW,211,0.0,1.0,23,0.00,,---,0.00,VWS V14.01,2013-09-21 23:23:00,
2013-09-21 16:28:00,95.8,52.1,29.77,SE,144,3.0,6.0,23,0.00,,---,0.00,VWS V14.01,2013-09-21 23:28:00,
2013-09-21 16:33:00,95.3,51.7,29.77,ESE,107,0.0,4.0,23,0.00,,---,0.00,VWS V14.01,2013-09-21 23:33:00,
2013-09-21 16:38:00,95.0,51.4,29.76,SE,138,0.0,1.0,23,0.00,,---,0.00,VWS V14.01,2013-09-21 23:38:00,
2013-09-21 16:43:00,94.7,50.0,29.77,South,180,0.0,1.0,22,0.00,,---,0.00,VWS V14.01,2013-09-21 23:43:00,
2013-09-21 16:48:00,94.4,50.9,29.76,South,180,0.0,1.0,23,0.00,,---,0.00,VWS V14.01,2013-09-21 23:48:00,
2013-09-21 16:53:00,94.1,49.5,29.76,South,180,0.0,0.0,22,0.00,,---,0.00,VWS V14.01,2013-09-21 23:53:00,
2013-09-21 16:58:00,94.0,51.8,29.76,South,180,0.0,0.0,24,0.00,,---,0.00,VWS V14.01,2013-09-21 23:58:00,
2013-09-21 17:03:00,93.8,51.6,29.76,South,180,0.0,1.0,24,0.00,,---,0.00,VWS V14.01,2013-09-22 00:03:00,
2013-09-21 17:08:00,93.5,51.3,29.76,South,180,0.0,0.0,24,0.00,,---,0.00,VWS V14.01,2013-09-22 00:08:00,
2013-09-21 17:13:00,93.4,52.3,29.76,South,180,0.0,0.0,25,0.00,,---,0.00,VWS V14.01,2013-09-22 00:13:00,
2013-09-21 17:18:00,93.1,54.2,29.76,South,180,0.0,0.0,27,0.00,,---,0.00,VWS V14.01,2013-09-22 00:18:00,
2013-09-21 17:23:00,93.0,52.0,29.76,South,180,0.0,0.0,25,0.00,,---,0.00,VWS V14.01,2013-09-22 00:23:00,
2013-09-21 17:28:00,92.8,50.7,29.76,SSW,200,0.0,1.0,24,0.00,,---,0.00,VWS V14.01,2013-09-22 00:28:00,
2013-09-21 17:33:00,92.8,50.7,29.76,SSW,200,0.0,1.0,24,0.00,,---,0.00,VWS V14.01,2013-09-22 00:33:00,
2013-09-21 17:38:00,92.8,50.7,29.76,SW,225,0.0,1.0,24,0.00,,---,0.00,VWS V14.01,2013-09-22 00:38:00,
2013-09-21 17:43:00,92.7,51.8,29.76,SW,221,0.0,0.0,25,0.00,,---,0.00,VWS V14.01,2013-09-22 00:43:00,
2013-09-21 17:48:00,92.6,51.7,29.76,SW,221,0.0,1.0,25,0.00,,---,0.00,VWS V14.01,2013-09-22 00:48:00,
2013-09-21 17:53:00,92.4,52.6,29.76,SW,221,0.0,0.0,26,0.00,,---,0.00,VWS V14.01,2013-09-22 00:53:00,
2013-09-21 17:58:00,92.2,51.3,29.75,SW,221,0.0,0.0,25,0.00,,---,0.00,VWS V14.01,2013-09-22 00:58:00,
2013-09-21 18:03:00,92.0,52.2,29.75,SW,221,0.0,0.0,26,0.00,,---,0.00,VWS V14.01,2013-09-22 01:03:00,
2013-09-21 18:08:00,91.8,52.1,29.75,SW,221,0.0,0.0,26,0.00,,---,0.00,VWS V14.01,2013-09-22 01:08:00,
2013-09-21 18:13:00,91.5,51.8,29.75,SW,221,0.0,0.0,26,0.00,,---,0.00,VWS V14.01,2013-09-22 01:13:00,
2013-09-21 18:18:00,91.1,52.5,29.75,SW,221,0.0,0.0,27,0.00,,---,0.00,VWS V14.01,2013-09-22 01:18:00,
2013-09-21 18:23:00,90.7,53.2,29.75,SW,221,0.0,0.0,28,0.00,,---,0.00,VWS V14.01,2013-09-22 01:23:00,
2013-09-21 18:28:00,90.2,52.7,29.75,East,96,0.0,1.0,28,0.00,,---,0.00,VWS V14.01,2013-09-22 01:28:00,
2013-09-21 18:33:00,90.1,52.6,29.75,East,96,0.0,0.0,28,0.00,,---,0.00,VWS V14.01,2013-09-22 01:33:00,
2013-09-21 18:38:00,89.9,52.5,29.76,SE,142,12.0,12.0,28,0.00,,---,0.00,VWS V14.01,2013-09-22 01:38:00,
2013-09-21 18:43:00,90.2,52.7,29.76,ESE,117,0.0,7.0,28,0.00,,---,0.00,VWS V14.01,2013-09-22 01:43:00,
2013-09-21 18:48:00,90.3,52.8,29.76,SE,129,0.0,2.0,28,0.00,,---,0.00,VWS V14.01,2013-09-22 01:48:00,
2013-09-21 18:53:00,90.2,52.7,29.76,SE,140,0.0,0.0,28,0.00,,---,0.00,VWS V14.01,2013-09-22 01:53:00,
2013-09-21 18:58:00,90.0,53.5,29.76,SE,139,0.0,1.0,29,0.00,,---,0.00,VWS V14.01,2013-09-22 01:58:00,
2013-09-21 19:03:00,89.7,53.2,29.77,SE,128,0.0,1.0,29,0.00,,---,0.00,VWS V14.01,2013-09-22 02:03:00,
2013-09-21 19:08:00,89.4,53.9,29.77,SE,137,0.0,6.0,30,0.00,,---,0.00,VWS V14.01,2013-09-22 02:08:00,
2013-09-21 19:13:00,89.3,53.8,29.78,SE,137,5.0,8.0,30,0.00,,---,0.00,VWS V14.01,2013-09-22 02:13:00,
2013-09-21 19:18:00,89.0,55.3,29.78,SE,138,0.0,10.0,32,0.00,,---,0.00,VWS V14.01,2013-09-22 02:18:00,
2013-09-21 19:23:00,87.6,61.0,29.79,SSW,212,0.0,3.0,41,0.00,,---,0.00,VWS V14.01,2013-09-22 02:23:00,
2013-09-21 19:28:00,85.7,61.9,29.78,NNE,24,0.0,3.0,45,0.00,,---,0.00,VWS V14.01,2013-09-22 02:28:00,
2013-09-21 19:33:00,84.1,62.9,29.78,NNE,19,0.0,1.0,49,0.00,,---,0.00,VWS V14.01,2013-09-22 02:33:00,
2013-09-21 19:38:00,83.5,59.9,29.78,NE,50,0.0,0.0,45,0.00,,---,0.00,VWS V14.01,2013-09-22 02:38:00,
2013-09-21 19:43:00,83.4,60.5,29.78,NE,50,0.0,0.0,46,0.00,,---,0.00,VWS V14.01,2013-09-22 02:43:00,
2013-09-21 19:48:00,83.4,59.8,29.78,NE,50,0.0,1.0,45,0.00,,---,0.00,VWS V14.01,2013-09-22 02:48:00,
2013-09-21 19:53:00,83.8,58.9,29.78,NE,40,0.0,3.0,43,0.00,,---,0.00,VWS V14.01,2013-09-22 02:53:00,
2013-09-21 19:58:00,84.1,57.9,29.78,ENE,78,0.0,4.0,41,0.00,,---,0.00,VWS V14.01,2013-09-22 02:58:00,
2013-09-21 20:03:00,84.8,56.4,29.78,ENE,60,0.0,3.0,38,0.00,,---,0.00,VWS V14.01,2013-09-22 03:03:00,
2013-09-21 20:08:00,85.2,55.3,29.78,NE,46,0.0,5.0,36,0.00,,---,0.00,VWS V14.01,2013-09-22 03:08:00,
2013-09-21 20:13:00,85.5,55.5,29.78,NE,36,4.0,4.0,36,0.00,,---,0.00,VWS V14.01,2013-09-22 03:13:00,
2013-09-21 20:18:00,85.7,56.5,29.78,NE,56,0.0,3.0,37,0.00,,---,0.00,VWS V14.01,2013-09-22 03:18:00,
2013-09-21 20:23:00,85.5,56.3,29.78,ENE,76,0.0,5.0,37,0.00,,---,0.00,VWS V14.01,2013-09-22 03:23:00,
2013-09-21 20:28:00,85.4,56.2,29.78,East,89,0.0,7.0,37,0.00,,---,0.00,VWS V14.01,2013-09-22 03:28:00,
2013-09-21 20:33:00,85.4,56.2,29.78,ENE,73,0.0,0.0,37,0.00,,---,0.00,VWS V14.01,2013-09-22 03:33:00,
2013-09-21 20:51:00,85.6,56.4,29.78,ENE,68,0.0,1.0,37,0.00,,---,0.00,VWS V14.01,2013-09-22 03:51:00,
2013-09-21 20:56:00,85.3,56.1,29.78,ENE,60,0.0,0.0,37,0.00,,---,0.00,VWS V14.01,2013-09-22 03:56:00,
2013-09-21 21:01:00,85.1,57.4,29.79,ENE,60,0.0,0.0,39,0.00,,---,0.00,VWS V14.01,2013-09-22 04:01:00,
2013-09-21 21:02:00,85.0,57.3,29.79,ENE,60,0.0,0.0,39,0.00,,---,0.00,VWS V14.01,2013-09-22 04:02:00,
2013-09-21 21:07:00,84.7,57.0,29.79,ENE,60,0.0,0.0,39,0.00,,---,0.00,VWS V14.01,2013-09-22 04:07:00,
2013-09-21 21:12:00,84.6,57.6,29.79,ENE,60,0.0,0.0,40,0.00,,---,0.00,VWS V14.01,2013-09-22 04:12:00,
2013-09-21 21:17:00,84.3,57.4,29.79,SE,138,0.0,4.0,40,0.00,,---,0.00,VWS V14.01,2013-09-22 04:17:00,
2013-09-21 21:22:00,84.4,57.5,29.79,SE,130,1.0,3.0,40,0.00,,---,0.00,VWS V14.01,2013-09-22 04:22:00,
2013-09-21 21:27:00,84.5,55.4,29.79,ENE,78,2.0,6.0,37,0.00,,---,0.00,VWS V14.01,2013-09-22 04:27:00,
2013-09-21 21:32:00,84.8,54.9,29.78,East,94,2.0,2.0,36,0.00,,---,0.00,VWS V14.01,2013-09-22 04:32:00,
2013-09-21 21:37:00,85.0,55.1,29.78,East,84,0.0,1.0,36,0.00,,---,0.00,VWS V14.01,2013-09-22 04:37:00,
2013-09-21 21:42:00,85.0,55.1,29.79,East,95,0.0,0.0,36,0.00,,---,0.00,VWS V14.01,2013-09-22 04:42:00,
2013-09-21 21:47:00,84.8,54.9,29.78,East,95,0.0,0.0,36,0.00,,---,0.00,VWS V14.01,2013-09-22 04:47:00,
2013-09-21 21:52:00,84.6,55.5,29.78,East,95,1.0,1.0,37,0.00,,---,0.00,VWS V14.01,2013-09-22 04:52:00,
2013-09-21 21:57:00,84.3,55.2,29.79,East,95,0.0,0.0,37,0.00,,---,0.00,VWS V14.01,2013-09-22 04:57:00,
2013-09-21 22:02:00,83.9,55.6,29.79,East,95,0.0,0.0,38,0.00,,---,0.00,VWS V14.01,2013-09-22 05:02:00,
2013-09-21 22:07:00,83.4,56.6,29.79,East,95,0.0,1.0,40,0.00,,---,0.00,VWS V14.01,2013-09-22 05:07:00,
2013-09-21 22:12:00,82.8,56.7,29.79,East,95,0.0,0.0,41,0.00,,---,0.00,VWS V14.01,2013-09-22 05:12:00,
2013-09-21 22:17:00,82.5,56.5,29.79,East,95,0.0,0.0,41,0.00,,---,0.00,VWS V14.01,2013-09-22 05:17:00,
2013-09-21 22:22:00,82.1,56.8,29.80,East,95,0.0,0.0,42,0.00,,---,0.00,VWS V14.01,2013-09-22 05:22:00,
2013-09-21 22:27:00,81.6,56.3,29.80,NNW,327,0.0,3.0,42,0.00,,---,0.00,VWS V14.01,2013-09-22 05:27:00,
2013-09-21 22:32:00,81.6,55.0,29.79,NW,304,0.0,0.0,40,0.00,,---,0.00,VWS V14.01,2013-09-22 05:32:00,
2013-09-21 22:37:00,81.8,57.1,29.79,NW,304,0.0,0.0,43,0.00,,---,0.00,VWS V14.01,2013-09-22 05:37:00,
2013-09-21 22:42:00,81.5,56.9,29.79,NW,304,0.0,0.0,43,0.00,,---,0.00,VWS V14.01,2013-09-22 05:42:00,
2013-09-21 22:47:00,81.1,56.5,29.79,NW,304,0.0,0.0,43,0.00,,---,0.00,VWS V14.01,2013-09-22 05:47:00,
2013-09-21 22:52:00,80.7,56.2,29.79,NW,304,0.0,0.0,43,0.00,,---,0.00,VWS V14.01,2013-09-22 05:52:00,
2013-09-21 22:57:00,80.4,56.5,29.79,NW,304,0.0,0.0,44,0.00,,---,0.00,VWS V14.01,2013-09-22 05:57:00,
2013-09-21 23:02:00,80.1,56.9,29.79,NW,304,0.0,0.0,45,0.00,,---,0.00,VWS V14.01,2013-09-22 06:02:00,
2013-09-21 23:07:00,79.8,56.0,29.79,NW,304,0.0,0.0,44,0.00,,---,0.00,VWS V14.01,2013-09-22 06:07:00,
2013-09-21 23:12:00,79.6,57.0,29.79,NW,304,0.0,1.0,46,0.00,,---,0.00,VWS V14.01,2013-09-22 06:12:00,
2013-09-21 23:17:00,79.6,57.0,29.79,North,355,0.0,0.0,46,0.00,,---,0.00,VWS V14.01,2013-09-22 06:17:00,
2013-09-21 23:22:00,79.7,57.1,29.79,North,355,0.0,0.0,46,0.00,,---,0.00,VWS V14.01,2013-09-22 06:22:00,
2013-09-21 23:27:00,79.6,57.6,29.79,North,355,0.0,0.0,47,0.00,,---,0.00,VWS V14.01,2013-09-22 06:27:00,
2013-09-21 23:32:00,79.1,57.2,29.79,North,355,0.0,0.0,47,0.00,,---,0.00,VWS V14.01,2013-09-22 06:32:00,
2013-09-21 23:37:00,78.7,57.4,29.79,North,355,0.0,0.0,48,0.00,,---,0.00,VWS V14.01,2013-09-22 06:37:00,
2013-09-21 23:42:00,78.4,57.1,29.79,NNE,30,0.0,0.0,48,0.00,,---,0.00,VWS V14.01,2013-09-22 06:42:00,
2013-09-21 23:47:00,78.3,57.0,29.79,NE,38,0.0,0.0,48,0.00,,---,0.00,VWS V14.01,2013-09-22 06:47:00,
2013-09-21 23:52:00,78.4,57.1,29.79,NE,38,0.0,0.0,48,0.00,,---,0.00,VWS V14.01,2013-09-22 06:52:00,
2013-09-21 23:57:00,78.5,57.2,29.79,NE,38,0.0,0.0,48,0.00,,---,0.00,VWS V14.01,2013-09-22 06:57:00,